METAR Data
IDs: Format: Raw Decoded Include TAF

Data at: 0045 UTC 24 May 2019

METAR for:PADK (Adak (NAS), AK, US)
Text:PADK 240039Z AUTO 04019KT 10SM BKN027 BKN034 OVC041 09/02 A3019 RMK AO2
Temperature: 9.0°C ( 48°F)
Dewpoint: 2.0°C ( 36°F) [RH = 61%]
Pressure (altimeter):30.19 inches Hg (1022.4 mb)
Winds:from the NE (40 degrees) at 22 MPH (19 knots; 9.8 m/s)
Visibility:10 or more sm (16+ km)
Ceiling:2700 feet AGL
Clouds: broken clouds at 2700 feet AGL, broken clouds at 3400 feet AGL, overcast cloud deck at 4100 feet AGL
QC Flag:automated observation with no human augmentation
Text:PADK 232356Z AUTO 04020KT 10SM BKN041 08/03 A3019 RMK AO2 PK WND 06026/2312 SLP222 T00830028 10100 20061 58003
Temperature: 8.3°C ( 47°F)
Dewpoint: 2.8°C ( 37°F) [RH = 68%]
Pressure (altimeter):30.19 inches Hg (1022.4 mb) [Sea level pressure: 1022.2 mb]
Winds:from the NE (40 degrees) at 23 MPH (20 knots; 10.3 m/s)
Visibility:10 or more sm (16+ km)
Ceiling:4100 feet AGL
Clouds: broken clouds at 4100 feet AGL
QC Flag:automated observation with no human augmentation
Text:PADK 232256Z AUTO 04018KT 10SM OVC041 08/03 A3020 RMK AO2 SLP227 T00830033
Temperature: 8.3°C ( 47°F)
Dewpoint: 3.3°C ( 38°F) [RH = 71%]
Pressure (altimeter):30.20 inches Hg (1022.8 mb) [Sea level pressure: 1022.7 mb]
Winds:from the NE (40 degrees) at 21 MPH (18 knots; 9.3 m/s)
Visibility:10 or more sm (16+ km)
Ceiling:4100 feet AGL
Clouds: overcast cloud deck at 4100 feet AGL
QC Flag:automated observation with no human augmentation
Text:PADK 232214Z AUTO 05016G23KT 10SM SCT012 SCT046 09/06 A3020 RMK AO2
Temperature: 9.0°C ( 48°F)
Dewpoint: 6.0°C ( 43°F) [RH = 81%]
Pressure (altimeter):30.20 inches Hg (1022.8 mb)
Winds:from the NE (50 degrees) at 18 MPH (16 knots; 8.2 m/s) gusting to 26 MPH (23 knots; 11.8 m/s)
Visibility:10 or more sm (16+ km)
Ceiling:at least 12,000 feet AGL
Clouds: scattered clouds at 1200 feet AGL, scattered clouds at 4600 feet AGL
QC Flag:automated observation with no human augmentation
Text:PADK 232156Z AUTO 05019KT 10SM BKN010 OVC046 08/06 A3020 RMK AO2 SLP225 T00830056
Temperature: 8.3°C ( 47°F)
Dewpoint: 5.6°C ( 42°F) [RH = 83%]
Pressure (altimeter):30.20 inches Hg (1022.8 mb) [Sea level pressure: 1022.5 mb]
Winds:from the NE (50 degrees) at 22 MPH (19 knots; 9.8 m/s)
Visibility:10 or more sm (16+ km)
Ceiling:1000 feet AGL
Clouds: broken clouds at 1000 feet AGL, overcast cloud deck at 4600 feet AGL
QC Flag:automated observation with no human augmentation
Text:PADK 232056Z AUTO 04016KT 10SM BKN010 OVC042 07/06 A3020 RMK AO2 SLP225 T00720056 53009
Temperature: 7.2°C ( 45°F)
Dewpoint: 5.6°C ( 42°F) [RH = 90%]
Pressure (altimeter):30.20 inches Hg (1022.8 mb) [Sea level pressure: 1022.5 mb]
Winds:from the NE (40 degrees) at 18 MPH (16 knots; 8.2 m/s)
Visibility:10 or more sm (16+ km)
Ceiling:1000 feet AGL
Clouds: broken clouds at 1000 feet AGL, overcast cloud deck at 4200 feet AGL
QC Flag:automated observation with no human augmentation
Text:PADK 232037Z AUTO 03017KT 10SM BKN010 BKN040 OVC047 07/05 A3019 RMK AO2
Temperature: 7.0°C ( 45°F)
Dewpoint: 5.0°C ( 41°F) [RH = 87%]
Pressure (altimeter):30.19 inches Hg (1022.4 mb)
Winds:from the NNE (30 degrees) at 20 MPH (17 knots; 8.7 m/s)
Visibility:10 or more sm (16+ km)
Ceiling:1000 feet AGL
Clouds: broken clouds at 1000 feet AGL, broken clouds at 4000 feet AGL, overcast cloud deck at 4700 feet AGL
QC Flag:automated observation with no human augmentation
Text:PADK 231956Z AUTO 04016KT 10SM BKN040 07/04 A3019 RMK AO2 SLP222 T00670044
Temperature: 6.7°C ( 44°F)
Dewpoint: 4.4°C ( 40°F) [RH = 85%]
Pressure (altimeter):30.19 inches Hg (1022.4 mb) [Sea level pressure: 1022.2 mb]
Winds:from the NE (40 degrees) at 18 MPH (16 knots; 8.2 m/s)
Visibility:10 or more sm (16+ km)
Ceiling:4000 feet AGL
Clouds: broken clouds at 4000 feet AGL
QC Flag:automated observation with no human augmentation
Text:PADK 231940Z AUTO 03017KT 10SM SCT010 SCT028 OVC040 07/05 A3018 RMK AO2
Temperature: 7.0°C ( 45°F)
Dewpoint: 5.0°C ( 41°F) [RH = 87%]
Pressure (altimeter):30.18 inches Hg (1022.1 mb)
Winds:from the NNE (30 degrees) at 20 MPH (17 knots; 8.7 m/s)
Visibility:10 or more sm (16+ km)
Ceiling:4000 feet AGL
Clouds: scattered clouds at 1000 feet AGL, scattered clouds at 2800 feet AGL, overcast cloud deck at 4000 feet AGL
QC Flag:automated observation with no human augmentation
Text:PADK 231916Z AUTO 04017KT 10SM BKN010 BKN028 OVC038 07/05 A3018 RMK AO2
Temperature: 7.0°C ( 45°F)
Dewpoint: 5.0°C ( 41°F) [RH = 87%]
Pressure (altimeter):30.18 inches Hg (1022.1 mb)
Winds:from the NE (40 degrees) at 20 MPH (17 knots; 8.7 m/s)
Visibility:10 or more sm (16+ km)
Ceiling:1000 feet AGL
Clouds: broken clouds at 1000 feet AGL, broken clouds at 2800 feet AGL, overcast cloud deck at 3800 feet AGL
QC Flag:automated observation with no human augmentation
Text:PADK 231856Z AUTO 04013KT 10SM BKN008 BKN023 OVC034 07/06 A3017 RMK AO2 SLP217 T00720056
Temperature: 7.2°C ( 45°F)
Dewpoint: 5.6°C ( 42°F) [RH = 90%]
Pressure (altimeter):30.17 inches Hg (1021.8 mb) [Sea level pressure: 1021.7 mb]
Winds:from the NE (40 degrees) at 15 MPH (13 knots; 6.7 m/s)
Visibility:10 or more sm (16+ km)
Ceiling:800 feet AGL
Clouds: broken clouds at 800 feet AGL, broken clouds at 2300 feet AGL, overcast cloud deck at 3400 feet AGL
QC Flag:automated observation with no human augmentation

TAF for:PADK (Adak (NAS), AK, US)
Text:No data found